Logo AVAMET
Benvolgut visitant, si us plau, ingressa Recuperar contrasenya
AVAMET paisatges

Onda centre

Dades diàries. Acumulats / Últims 30 dies disponibles

Data Temperatura (°C) Humitat rel. (%) Pressió rel. (hPa) Vent (km/h) Precipitació
Mínima Mitjana Màxima Amplitud
tèrmica
Mínima Mitjana Màxima Mínima Mitjana Màxima Predom. Mitjana Ràfega
màxima
Total
(mm)
Índex-n
Mínima Mitjana Màxima Mínima Mitjana Màxima n
0 a 1
P0 max
mm 5'
Dades mensuals acumulades fins l'últim dia disponible
05/2020 11,8 16,0 20,0 20,8 17,8 25,9 31,3 19,5 19 58 96 1.000 1.015 1.028   3,4 31,4 24,3
Dades anuals acumulades fins l'últim dia disponible
2020 3,7 11,0 20,0 14,9 8,6 19,7 31,3 27,6 9 67 100 994 1.019 1.034   2,5 53,6 397,9
Últims 30 dies disponibles
30-05-2020 16,3     21,1     25,5 9,2 42 57 72 1.013 1.014 1.016 SSO 4,8 27,8 0,0
29-05-2020 14,8     21,7     28,2 13,4 28 48 67 1.012 1.016 1.020 SE 4,3 22,2 0,0
28-05-2020 15,3     20,8     26,0 10,7 36 59 82 1.020 1.023 1.026 SSE 3,8 22,2 0,0
27-05-2020 16,4     21,9     27,9 11,5 26 52 77 1.023 1.024 1.026 SE 4,4 22,2 0,0
26-05-2020 16,4     20,8     26,5 10,1 37 64 91 1.022 1.024 1.026 S 1,9 14,8 0,0
25-05-2020 16,1     19,0     23,0 6,9 51 71 90 1.023 1.025 1.026 SSE 1,7 14,8 3,7
24-05-2020 18,9     21,1     24,1 5,2 58 71 84 1.024 1.026 1.028 SE 3,1 20,4 0,0
23-05-2020 18,6     23,4     29,2 10,6 31 51 71 1.022 1.023 1.025 SE 3,4 18,5 0,0
22-05-2020 18,4     24,3     30,1 11,7 30 50 69 1.018 1.021 1.024 SE 3,4 18,5 0,0
21-05-2020 18,6     23,9     29,5 10,9 30 46 62 1.016 1.018 1.020 SE 4,3 31,4 0,0
20-05-2020 18,4     23,4     28,6 10,2 29 46 62 1.013 1.015 1.016 SE 3,8 18,5 0,0
19-05-2020 16,4     22,3     27,5 11,1 32 51 70 1.014 1.017 1.020 ESE 3,0 18,5 0,0
18-05-2020 15,1     20,1     25,4 10,3 35 55 74 1.018 1.020 1.021 SE 3,4 22,2 0,0
17-05-2020 13,3     18,8     24,0 10,7 37 62 87 1.018 1.019 1.021 ESE 3,1 24,1 0,0
16-05-2020 15,3     17,7     22,4 7,1 43 66 88 1.014 1.016 1.019 ESE 2,2 14,8 0,0
15-05-2020 11,8     16,8     21,5 9,7 38 62 86 1.008 1.011 1.015 ESE 2,6 18,5 0,0
14-05-2020 13,4     15,8     17,8 4,4 51 74 96 1.002 1.004 1.008 SSE 1,7 11,1 19,2 0,42 2,40
13-05-2020 12,4     18,8     25,5 13,1 29 61 92 1.001 1.003 1.005 SSE 3,1 14,8 0,0
12-05-2020 16,4     18,7     22,7 6,3 42 68 94 1.005 1.008 1.009 SE 3,1 27,8 1,4
11-05-2020 14,7     20,9     26,6 11,9 20 43 65 1.003 1.005 1.009 SSE 3,5 20,4 0,0
10-05-2020 15,8     19,3     25,2 9,4 20 54 87 1.000 1.003 1.008 SSE 2,4 22,2 0,0
09-05-2020 16,5     19,3     23,3 6,8 57 71 85 1.007 1.011 1.014 SE 2,3 14,8 0,0
08-05-2020 15,0     19,6     24,9 9,9 49 67 85 1.013 1.015 1.017 ESE 2,8 24,1 0,0
07-05-2020 16,1     21,0     25,9 9,8 35 57 78 1.015 1.016 1.017 ESE 25,7 0,0
06-05-2020 16,6     21,9     27,2 10,6 40 59 78 1.012 1.013 1.015 SE 27,2 0,0
05-05-2020 16,2     21,5     26,8 10,6 53 72 82 1.010 1.011 1.013 ESE 19,3 0,0
04-05-2020 14,9     20,1     25,4 10,5 59 70 80 1.015 1.013 1.011 ESE 22,5 0,0
03-05-2020 14,9     21,0     26,2 11,3 46 60 76 1.015 1.016 1.017 ESE 8,0 29,0 0,0
02-05-2020 20,0     24,9     29,5 9,5 25 40 54 1.014 1.016 1.017 ESE 3,8 24,1 0,0
01-05-2020 16,5     23,5     31,3 14,8 19 37 55 1.011 1.014 1.016 SSO 3,9 27,8 0,0
Últims 13 mesos disponibles
04/2020 7,7 11,8 19,0 15,3 14,0 19,9 26,9 19,2 31 72 96 1.003 1.014 1.025 SE 2,3 24,1 103,2
03/2020 5,3 10,0 15,5 13,6 10,3 17,5 25,2 19,9 36 68 95 1.003 1.016 1.026 SE 2,8 53,6 170,1
02/2020 6,1 10,0 15,4 14,1 13,7 19,7 25,3 19,2 41 65 97 1.011 1.024 1.031 SSE 2,1 24,1 0,0
01/2020 3,7 7,3 13,5 10,6 8,6 15,5 21,7 18,0 56 71 92 1.017 1.024 1.031 SSE 1,9 33,3 100,3
12/2019 4,7 10,2 16,5 13,4 11,8 17,4 23,7 19,0 41 67 99 1.000 1.018 1.032 SSE 2,5 37,0 109,2
11/2019 5,2 11,6 18,5 15,1 14,7 19,1 27,5 22,3 38 51 79 996 1.010 1.018 SSE 3,6 31,4 1,3
10/2019 10,1 15,7 19,3 19,4 14,7 24,1 29,0 18,9 44 66 88 1.006 1.016 1.021 SE 2,6 24,1 19,7
09/2019 14,8 19,0 22,7 22,8 21,6 27,6 31,8 17,0 52 70 80 1.009 1.018 1.026 SE 2,6 31,4 65,9
08/2019 17,9 21,2 25,5 25,6 24,9 30,6 36,1 18,2 49 68 84 1.010 1.016 1.020 SE 3,1 29,6 74,4
07/2019 20,1 21,7 24,6 26,5 27,3 31,4 35,5 15,4 31 57 73 1.005 1.014 1.021 SE 3,8 29,6 19,9
06/2019 11,0 17,5 23,0 22,5 21,6 27,7 38,5 27,5 30 55 72 1.008 1.015 1.022 SE 3,8 31,4 0,0
05/2019 9,6 13,6 17,4 17,9 17,9 22,9 29,2 19,6 48 61 85 1.004 1.015 1.024 SE 3,3 38,9 26,3
04/2019 7,1 11,1 14,7 14,9 14,9 19,5 27,6 20,5 30 60 93 998 1.013 1.025 S 3,8 50,0 112,2
Tots els anys disponibles
2019 3,1 13,8 25,5 18,0 11,6 22,9 38,5 35,4 25 60 99 993 1.017 1.034 SE 3,0 50,0 455,3
2018 1,4 14,0 26,1 18,3 8,2 22,7 35,7 34,3 26 61 100 993 1.016 1.035 0,0 41,0 752,5
2017 0,0 13,7 23,7 18,2 7,9 22,8 36,7 36,7 25 59 93 995 1.019 1.036 0,0 44,0 433,7
2016 2,8 13,9 26,0 18,2 10,3 22,6 35,8 33,0 41 57 69 1.014 1.017 1.027 76,0 557,3
2015 1,0 13,9 25,0 17,2 8,0 22,9 40,6 39,6 17 53 87 1.004 1.022 1.037 43,0 747,6
2014 2,3 14,3 24,7 19,1 12,0 24,0 34,9 32,6 55,0 351,2
2013 417,4
2012 327,8
2011 703,6
Temperatura (°C)
Humitat relativa (%)
Velocitat del vent i ràfega màxima (km/h)
Direcció del vent (°)
Pressió (hPa)
Precipitació (mm)
Nota sobre les dades: s'avisa a l'usuari de la provisionalitat i no oficialitat d'aquestes dades
Logo AVAMET blanc
Web allotjada a Sollutia
Llicència de Creative CommonsLa web d'AVAMET i els seus continguts estan subjectes a una llicència de
Reconeixement - No Comercial - Compartir igual
Últimes estacions: Xodos - la Vega (Soci), la Vall d'Alba - Centre (Ajuntament soci), Chera (Ajuntament soci) - - -